<?xml version="1.0" encoding="UTF-8" standalone="no" ?>
<gpx xmlns="http://www.topografix.com/GPX/1/1" xmlns:xsi="http://www.w3.org/2001/XMLSchema-instance" xsi:schemaLocation="http://www.topografix.com/GPX/1/1 http://www.topografix.com/GPX/1/1/gpx.xsd" version="1.1" creator="VisuGPX - https://www.visugpx.com">
  <metadata>
    <name>83 - M - FIGANIERES</name>
    <desc><![CDATA[FIGANIERES - la voie romaine]]></desc>
  </metadata>
  <wpt lat="43.56763" lon="6.49811">
    <ele>357</ele>
    <name><![CDATA[]]></name>
    <type><![CDATA[GENERIC]]></type>
  </wpt>
  <wpt lat="43.56739" lon="6.49821">
    <ele>372</ele>
    <name><![CDATA[]]></name>
    <type><![CDATA[GENERIC]]></type>
  </wpt>
  <trk>
    <name><![CDATA[Randonnée du 19/03/2025 à 14:11]]></name>
    <trkseg>
      <trkpt lat="43.56739" lon="6.49821">
        <ele>372</ele>
        <time>2025-03-19T13:11:59.000Z</time>
      </trkpt>
      <trkpt lat="43.56738" lon="6.49816">
        <ele>376</ele>
        <time>2025-03-19T13:12:05.000Z</time>
      </trkpt>
      <trkpt lat="43.56743" lon="6.49789">
        <ele>356</ele>
        <time>2025-03-19T13:13:20.000Z</time>
      </trkpt>
      <trkpt lat="43.56748" lon="6.49758">
        <ele>359</ele>
        <time>2025-03-19T13:14:44.000Z</time>
      </trkpt>
      <trkpt lat="43.56741" lon="6.49727">
        <ele>369</ele>
        <time>2025-03-19T13:15:08.000Z</time>
      </trkpt>
      <trkpt lat="43.56728" lon="6.497">
        <ele>371</ele>
        <time>2025-03-19T13:15:32.000Z</time>
      </trkpt>
      <trkpt lat="43.56713" lon="6.49675">
        <ele>372</ele>
        <time>2025-03-19T13:15:59.000Z</time>
      </trkpt>
      <trkpt lat="43.56706" lon="6.49645">
        <ele>375</ele>
        <time>2025-03-19T13:16:29.000Z</time>
      </trkpt>
      <trkpt lat="43.56716" lon="6.49615">
        <ele>379</ele>
        <time>2025-03-19T13:16:56.000Z</time>
      </trkpt>
      <trkpt lat="43.56727" lon="6.49588">
        <ele>382</ele>
        <time>2025-03-19T13:17:44.000Z</time>
      </trkpt>
      <trkpt lat="43.56733" lon="6.49558">
        <ele>384</ele>
        <time>2025-03-19T13:18:08.000Z</time>
      </trkpt>
      <trkpt lat="43.56742" lon="6.49527">
        <ele>387</ele>
        <time>2025-03-19T13:18:35.000Z</time>
      </trkpt>
      <trkpt lat="43.56752" lon="6.49496">
        <ele>390</ele>
        <time>2025-03-19T13:18:59.000Z</time>
      </trkpt>
      <trkpt lat="43.56762" lon="6.49465">
        <ele>393</ele>
        <time>2025-03-19T13:19:23.000Z</time>
      </trkpt>
      <trkpt lat="43.56769" lon="6.49436">
        <ele>395</ele>
        <time>2025-03-19T13:19:44.000Z</time>
      </trkpt>
      <trkpt lat="43.56778" lon="6.49405">
        <ele>398</ele>
        <time>2025-03-19T13:20:11.000Z</time>
      </trkpt>
      <trkpt lat="43.56791" lon="6.49377">
        <ele>402</ele>
        <time>2025-03-19T13:20:38.000Z</time>
      </trkpt>
      <trkpt lat="43.56803" lon="6.49349">
        <ele>405</ele>
        <time>2025-03-19T13:20:59.000Z</time>
      </trkpt>
      <trkpt lat="43.56814" lon="6.49319">
        <ele>408</ele>
        <time>2025-03-19T13:21:23.000Z</time>
      </trkpt>
      <trkpt lat="43.56821" lon="6.49289">
        <ele>412</ele>
        <time>2025-03-19T13:21:47.000Z</time>
      </trkpt>
      <trkpt lat="43.56824" lon="6.49257">
        <ele>415</ele>
        <time>2025-03-19T13:22:11.000Z</time>
      </trkpt>
      <trkpt lat="43.56824" lon="6.49226">
        <ele>418</ele>
        <time>2025-03-19T13:22:32.000Z</time>
      </trkpt>
      <trkpt lat="43.56822" lon="6.49192">
        <ele>421</ele>
        <time>2025-03-19T13:22:56.000Z</time>
      </trkpt>
      <trkpt lat="43.56814" lon="6.49162">
        <ele>424</ele>
        <time>2025-03-19T13:23:23.000Z</time>
      </trkpt>
      <trkpt lat="43.56796" lon="6.49144">
        <ele>428</ele>
        <time>2025-03-19T13:23:44.000Z</time>
      </trkpt>
      <trkpt lat="43.56777" lon="6.49126">
        <ele>432</ele>
        <time>2025-03-19T13:24:05.000Z</time>
      </trkpt>
      <trkpt lat="43.56766" lon="6.49096">
        <ele>435</ele>
        <time>2025-03-19T13:24:32.000Z</time>
      </trkpt>
      <trkpt lat="43.56769" lon="6.49063">
        <ele>438</ele>
        <time>2025-03-19T13:24:59.000Z</time>
      </trkpt>
      <trkpt lat="43.56784" lon="6.49039">
        <ele>440</ele>
        <time>2025-03-19T13:25:20.000Z</time>
      </trkpt>
      <trkpt lat="43.56804" lon="6.49023">
        <ele>442</ele>
        <time>2025-03-19T13:25:38.000Z</time>
      </trkpt>
      <trkpt lat="43.56823" lon="6.49008">
        <ele>443</ele>
        <time>2025-03-19T13:25:56.000Z</time>
      </trkpt>
      <trkpt lat="43.5684" lon="6.48985">
        <ele>446</ele>
        <time>2025-03-19T13:26:14.000Z</time>
      </trkpt>
      <trkpt lat="43.56847" lon="6.48954">
        <ele>448</ele>
        <time>2025-03-19T13:26:35.000Z</time>
      </trkpt>
      <trkpt lat="43.5685" lon="6.48921">
        <ele>451</ele>
        <time>2025-03-19T13:26:59.000Z</time>
      </trkpt>
      <trkpt lat="43.56843" lon="6.48892">
        <ele>454</ele>
        <time>2025-03-19T13:29:53.000Z</time>
      </trkpt>
      <trkpt lat="43.56826" lon="6.48869">
        <ele>456</ele>
        <time>2025-03-19T13:30:17.000Z</time>
      </trkpt>
      <trkpt lat="43.56805" lon="6.48853">
        <ele>459</ele>
        <time>2025-03-19T13:30:38.000Z</time>
      </trkpt>
      <trkpt lat="43.56783" lon="6.48843">
        <ele>463</ele>
        <time>2025-03-19T13:31:02.000Z</time>
      </trkpt>
      <trkpt lat="43.5676" lon="6.48835">
        <ele>466</ele>
        <time>2025-03-19T13:31:23.000Z</time>
      </trkpt>
      <trkpt lat="43.56739" lon="6.48825">
        <ele>469</ele>
        <time>2025-03-19T13:31:44.000Z</time>
      </trkpt>
      <trkpt lat="43.56716" lon="6.4882">
        <ele>472</ele>
        <time>2025-03-19T13:32:08.000Z</time>
      </trkpt>
      <trkpt lat="43.56693" lon="6.48813">
        <ele>475</ele>
        <time>2025-03-19T13:32:29.000Z</time>
      </trkpt>
      <trkpt lat="43.56671" lon="6.48805">
        <ele>478</ele>
        <time>2025-03-19T13:32:50.000Z</time>
      </trkpt>
      <trkpt lat="43.56649" lon="6.48797">
        <ele>481</ele>
        <time>2025-03-19T13:33:14.000Z</time>
      </trkpt>
      <trkpt lat="43.56626" lon="6.48793">
        <ele>484</ele>
        <time>2025-03-19T13:33:35.000Z</time>
      </trkpt>
      <trkpt lat="43.56601" lon="6.48787">
        <ele>487</ele>
        <time>2025-03-19T13:33:56.000Z</time>
      </trkpt>
      <trkpt lat="43.56577" lon="6.48778">
        <ele>489</ele>
        <time>2025-03-19T13:34:23.000Z</time>
      </trkpt>
      <trkpt lat="43.56553" lon="6.4878">
        <ele>491</ele>
        <time>2025-03-19T13:34:44.000Z</time>
      </trkpt>
      <trkpt lat="43.56531" lon="6.48773">
        <ele>492</ele>
        <time>2025-03-19T13:35:05.000Z</time>
      </trkpt>
      <trkpt lat="43.56512" lon="6.48754">
        <ele>493</ele>
        <time>2025-03-19T13:35:26.000Z</time>
      </trkpt>
      <trkpt lat="43.56495" lon="6.4873">
        <ele>494</ele>
        <time>2025-03-19T13:35:50.000Z</time>
      </trkpt>
      <trkpt lat="43.56481" lon="6.48705">
        <ele>495</ele>
        <time>2025-03-19T13:36:08.000Z</time>
      </trkpt>
      <trkpt lat="43.56468" lon="6.48676">
        <ele>496</ele>
        <time>2025-03-19T13:36:29.000Z</time>
      </trkpt>
      <trkpt lat="43.56456" lon="6.48647">
        <ele>496</ele>
        <time>2025-03-19T13:36:50.000Z</time>
      </trkpt>
      <trkpt lat="43.56445" lon="6.48619">
        <ele>497</ele>
        <time>2025-03-19T13:37:11.000Z</time>
      </trkpt>
      <trkpt lat="43.56429" lon="6.48595">
        <ele>497</ele>
        <time>2025-03-19T13:37:35.000Z</time>
      </trkpt>
      <trkpt lat="43.56408" lon="6.4858">
        <ele>497</ele>
        <time>2025-03-19T13:37:58.000Z</time>
      </trkpt>
      <trkpt lat="43.56386" lon="6.48572">
        <ele>497</ele>
        <time>2025-03-19T13:38:16.000Z</time>
      </trkpt>
      <trkpt lat="43.56364" lon="6.48567">
        <ele>497</ele>
        <time>2025-03-19T13:38:34.000Z</time>
      </trkpt>
      <trkpt lat="43.5634" lon="6.48561">
        <ele>497</ele>
        <time>2025-03-19T13:38:55.000Z</time>
      </trkpt>
      <trkpt lat="43.56317" lon="6.4855">
        <ele>497</ele>
        <time>2025-03-19T13:39:13.000Z</time>
      </trkpt>
      <trkpt lat="43.56295" lon="6.48535">
        <ele>496</ele>
        <time>2025-03-19T13:39:34.000Z</time>
      </trkpt>
      <trkpt lat="43.56274" lon="6.48516">
        <ele>496</ele>
        <time>2025-03-19T13:39:55.000Z</time>
      </trkpt>
      <trkpt lat="43.56257" lon="6.48495">
        <ele>496</ele>
        <time>2025-03-19T13:40:13.000Z</time>
      </trkpt>
      <trkpt lat="43.56243" lon="6.4847">
        <ele>496</ele>
        <time>2025-03-19T13:40:31.000Z</time>
      </trkpt>
      <trkpt lat="43.56226" lon="6.48448">
        <ele>497</ele>
        <time>2025-03-19T13:40:49.000Z</time>
      </trkpt>
      <trkpt lat="43.56208" lon="6.48429">
        <ele>498</ele>
        <time>2025-03-19T13:43:28.000Z</time>
      </trkpt>
      <trkpt lat="43.56188" lon="6.48412">
        <ele>499</ele>
        <time>2025-03-19T13:43:49.000Z</time>
      </trkpt>
      <trkpt lat="43.56166" lon="6.48416">
        <ele>502</ele>
        <time>2025-03-19T13:44:10.000Z</time>
      </trkpt>
      <trkpt lat="43.56143" lon="6.48428">
        <ele>504</ele>
        <time>2025-03-19T13:44:34.000Z</time>
      </trkpt>
      <trkpt lat="43.5612" lon="6.48439">
        <ele>505</ele>
        <time>2025-03-19T13:44:55.000Z</time>
      </trkpt>
      <trkpt lat="43.56097" lon="6.48454">
        <ele>506</ele>
        <time>2025-03-19T13:45:16.000Z</time>
      </trkpt>
      <trkpt lat="43.56075" lon="6.48465">
        <ele>506</ele>
        <time>2025-03-19T13:45:34.000Z</time>
      </trkpt>
      <trkpt lat="43.56051" lon="6.48467">
        <ele>506</ele>
        <time>2025-03-19T13:49:19.000Z</time>
      </trkpt>
      <trkpt lat="43.56028" lon="6.4846">
        <ele>505</ele>
        <time>2025-03-19T13:49:37.000Z</time>
      </trkpt>
      <trkpt lat="43.56004" lon="6.48454">
        <ele>504</ele>
        <time>2025-03-19T13:49:58.000Z</time>
      </trkpt>
      <trkpt lat="43.55981" lon="6.48448">
        <ele>502</ele>
        <time>2025-03-19T13:50:16.000Z</time>
      </trkpt>
      <trkpt lat="43.55959" lon="6.48446">
        <ele>501</ele>
        <time>2025-03-19T13:50:34.000Z</time>
      </trkpt>
      <trkpt lat="43.55937" lon="6.48455">
        <ele>500</ele>
        <time>2025-03-19T13:50:55.000Z</time>
      </trkpt>
      <trkpt lat="43.55914" lon="6.4847">
        <ele>499</ele>
        <time>2025-03-19T13:51:16.000Z</time>
      </trkpt>
      <trkpt lat="43.55892" lon="6.48485">
        <ele>499</ele>
        <time>2025-03-19T13:51:34.000Z</time>
      </trkpt>
      <trkpt lat="43.55869" lon="6.48495">
        <ele>498</ele>
        <time>2025-03-19T13:51:52.000Z</time>
      </trkpt>
      <trkpt lat="43.55847" lon="6.48502">
        <ele>497</ele>
        <time>2025-03-19T13:52:10.000Z</time>
      </trkpt>
      <trkpt lat="43.55823" lon="6.48508">
        <ele>496</ele>
        <time>2025-03-19T13:52:31.000Z</time>
      </trkpt>
      <trkpt lat="43.55799" lon="6.48512">
        <ele>494</ele>
        <time>2025-03-19T13:52:49.000Z</time>
      </trkpt>
      <trkpt lat="43.55776" lon="6.48512">
        <ele>492</ele>
        <time>2025-03-19T13:53:10.000Z</time>
      </trkpt>
      <trkpt lat="43.55754" lon="6.4851">
        <ele>490</ele>
        <time>2025-03-19T13:53:28.000Z</time>
      </trkpt>
      <trkpt lat="43.55731" lon="6.48508">
        <ele>488</ele>
        <time>2025-03-19T13:53:46.000Z</time>
      </trkpt>
      <trkpt lat="43.55708" lon="6.48503">
        <ele>487</ele>
        <time>2025-03-19T13:54:04.000Z</time>
      </trkpt>
      <trkpt lat="43.55685" lon="6.48493">
        <ele>486</ele>
        <time>2025-03-19T13:54:22.000Z</time>
      </trkpt>
      <trkpt lat="43.55662" lon="6.48486">
        <ele>485</ele>
        <time>2025-03-19T13:54:43.000Z</time>
      </trkpt>
      <trkpt lat="43.55638" lon="6.48481">
        <ele>484</ele>
        <time>2025-03-19T13:55:01.000Z</time>
      </trkpt>
      <trkpt lat="43.55612" lon="6.48479">
        <ele>482</ele>
        <time>2025-03-19T13:55:22.000Z</time>
      </trkpt>
      <trkpt lat="43.55588" lon="6.48477">
        <ele>481</ele>
        <time>2025-03-19T13:55:40.000Z</time>
      </trkpt>
      <trkpt lat="43.55563" lon="6.48476">
        <ele>480</ele>
        <time>2025-03-19T13:55:58.000Z</time>
      </trkpt>
      <trkpt lat="43.55538" lon="6.48476">
        <ele>479</ele>
        <time>2025-03-19T13:56:19.000Z</time>
      </trkpt>
      <trkpt lat="43.55514" lon="6.48474">
        <ele>478</ele>
        <time>2025-03-19T13:56:37.000Z</time>
      </trkpt>
      <trkpt lat="43.55491" lon="6.48471">
        <ele>477</ele>
        <time>2025-03-19T13:56:58.000Z</time>
      </trkpt>
      <trkpt lat="43.55468" lon="6.48476">
        <ele>475</ele>
        <time>2025-03-19T13:57:13.000Z</time>
      </trkpt>
      <trkpt lat="43.55446" lon="6.48481">
        <ele>472</ele>
        <time>2025-03-19T13:57:32.000Z</time>
      </trkpt>
      <trkpt lat="43.55423" lon="6.48481">
        <ele>470</ele>
        <time>2025-03-19T13:57:50.000Z</time>
      </trkpt>
      <trkpt lat="43.55402" lon="6.48471">
        <ele>468</ele>
        <time>2025-03-19T13:58:08.000Z</time>
      </trkpt>
      <trkpt lat="43.55385" lon="6.48445">
        <ele>467</ele>
        <time>2025-03-19T13:58:29.000Z</time>
      </trkpt>
      <trkpt lat="43.55373" lon="6.48414">
        <ele>465</ele>
        <time>2025-03-19T13:58:53.000Z</time>
      </trkpt>
      <trkpt lat="43.55361" lon="6.48384">
        <ele>465</ele>
        <time>2025-03-19T13:59:11.000Z</time>
      </trkpt>
      <trkpt lat="43.55345" lon="6.48363">
        <ele>463</ele>
        <time>2025-03-19T13:59:32.000Z</time>
      </trkpt>
      <trkpt lat="43.5533" lon="6.48339">
        <ele>462</ele>
        <time>2025-03-19T13:59:48.000Z</time>
      </trkpt>
      <trkpt lat="43.55321" lon="6.48312">
        <ele>461</ele>
        <time>2025-03-19T14:00:06.000Z</time>
      </trkpt>
      <trkpt lat="43.55317" lon="6.4828">
        <ele>460</ele>
        <time>2025-03-19T14:00:24.000Z</time>
      </trkpt>
      <trkpt lat="43.55317" lon="6.48248">
        <ele>459</ele>
        <time>2025-03-19T14:00:42.000Z</time>
      </trkpt>
      <trkpt lat="43.55324" lon="6.48215">
        <ele>459</ele>
        <time>2025-03-19T14:01:03.000Z</time>
      </trkpt>
      <trkpt lat="43.55333" lon="6.48184">
        <ele>458</ele>
        <time>2025-03-19T14:01:21.000Z</time>
      </trkpt>
      <trkpt lat="43.5534" lon="6.48151">
        <ele>456</ele>
        <time>2025-03-19T14:01:42.000Z</time>
      </trkpt>
      <trkpt lat="43.55344" lon="6.48118">
        <ele>455</ele>
        <time>2025-03-19T14:04:48.000Z</time>
      </trkpt>
      <trkpt lat="43.55344" lon="6.48083">
        <ele>454</ele>
        <time>2025-03-19T14:05:09.000Z</time>
      </trkpt>
      <trkpt lat="43.55342" lon="6.48052">
        <ele>453</ele>
        <time>2025-03-19T14:05:27.000Z</time>
      </trkpt>
      <trkpt lat="43.55341" lon="6.48021">
        <ele>451</ele>
        <time>2025-03-19T14:05:45.000Z</time>
      </trkpt>
      <trkpt lat="43.55344" lon="6.47988">
        <ele>450</ele>
        <time>2025-03-19T14:06:03.000Z</time>
      </trkpt>
      <trkpt lat="43.55349" lon="6.47958">
        <ele>449</ele>
        <time>2025-03-19T14:06:21.000Z</time>
      </trkpt>
      <trkpt lat="43.55352" lon="6.47928">
        <ele>447</ele>
        <time>2025-03-19T14:06:39.000Z</time>
      </trkpt>
      <trkpt lat="43.55345" lon="6.47898">
        <ele>446</ele>
        <time>2025-03-19T14:07:15.000Z</time>
      </trkpt>
      <trkpt lat="43.55331" lon="6.47871">
        <ele>444</ele>
        <time>2025-03-19T14:07:36.000Z</time>
      </trkpt>
      <trkpt lat="43.55322" lon="6.47839">
        <ele>443</ele>
        <time>2025-03-19T14:07:57.000Z</time>
      </trkpt>
      <trkpt lat="43.55315" lon="6.47807">
        <ele>442</ele>
        <time>2025-03-19T14:08:15.000Z</time>
      </trkpt>
      <trkpt lat="43.55307" lon="6.47777">
        <ele>440</ele>
        <time>2025-03-19T14:08:36.000Z</time>
      </trkpt>
      <trkpt lat="43.55299" lon="6.47745">
        <ele>438</ele>
        <time>2025-03-19T14:08:54.000Z</time>
      </trkpt>
      <trkpt lat="43.55291" lon="6.47714">
        <ele>436</ele>
        <time>2025-03-19T14:09:12.000Z</time>
      </trkpt>
      <trkpt lat="43.5528" lon="6.47686">
        <ele>433</ele>
        <time>2025-03-19T14:09:30.000Z</time>
      </trkpt>
      <trkpt lat="43.55267" lon="6.4766">
        <ele>430</ele>
        <time>2025-03-19T14:09:51.000Z</time>
      </trkpt>
      <trkpt lat="43.55252" lon="6.47634">
        <ele>427</ele>
        <time>2025-03-19T14:10:09.000Z</time>
      </trkpt>
      <trkpt lat="43.55233" lon="6.47611">
        <ele>425</ele>
        <time>2025-03-19T14:10:30.000Z</time>
      </trkpt>
      <trkpt lat="43.55222" lon="6.47593">
        <ele>423</ele>
        <time>2025-03-19T14:10:48.000Z</time>
      </trkpt>
      <trkpt lat="43.5524" lon="6.47602">
        <ele>423</ele>
        <time>2025-03-19T14:13:12.000Z</time>
      </trkpt>
      <trkpt lat="43.55259" lon="6.4762">
        <ele>423</ele>
        <time>2025-03-19T14:13:33.000Z</time>
      </trkpt>
      <trkpt lat="43.55279" lon="6.47635">
        <ele>424</ele>
        <time>2025-03-19T14:13:54.000Z</time>
      </trkpt>
      <trkpt lat="43.55298" lon="6.4765">
        <ele>425</ele>
        <time>2025-03-19T14:14:18.000Z</time>
      </trkpt>
      <trkpt lat="43.55314" lon="6.4767">
        <ele>427</ele>
        <time>2025-03-19T14:14:45.000Z</time>
      </trkpt>
      <trkpt lat="43.55337" lon="6.47672">
        <ele>429</ele>
        <time>2025-03-19T14:15:18.000Z</time>
      </trkpt>
      <trkpt lat="43.55359" lon="6.47664">
        <ele>433</ele>
        <time>2025-03-19T14:15:42.000Z</time>
      </trkpt>
      <trkpt lat="43.55379" lon="6.47647">
        <ele>437</ele>
        <time>2025-03-19T14:16:09.000Z</time>
      </trkpt>
      <trkpt lat="43.55397" lon="6.47625">
        <ele>441</ele>
        <time>2025-03-19T14:16:36.000Z</time>
      </trkpt>
      <trkpt lat="43.55417" lon="6.47606">
        <ele>445</ele>
        <time>2025-03-19T14:17:06.000Z</time>
      </trkpt>
      <trkpt lat="43.55436" lon="6.47588">
        <ele>448</ele>
        <time>2025-03-19T14:17:39.000Z</time>
      </trkpt>
      <trkpt lat="43.55456" lon="6.4757">
        <ele>451</ele>
        <time>2025-03-19T14:18:18.000Z</time>
      </trkpt>
      <trkpt lat="43.55477" lon="6.47559">
        <ele>454</ele>
        <time>2025-03-19T14:18:48.000Z</time>
      </trkpt>
      <trkpt lat="43.55492" lon="6.47535">
        <ele>456</ele>
        <time>2025-03-19T14:19:18.000Z</time>
      </trkpt>
      <trkpt lat="43.555" lon="6.47505">
        <ele>459</ele>
        <time>2025-03-19T14:19:45.000Z</time>
      </trkpt>
      <trkpt lat="43.55513" lon="6.47478">
        <ele>461</ele>
        <time>2025-03-19T14:20:12.000Z</time>
      </trkpt>
      <trkpt lat="43.55531" lon="6.47456">
        <ele>463</ele>
        <time>2025-03-19T14:20:36.000Z</time>
      </trkpt>
      <trkpt lat="43.55553" lon="6.47438">
        <ele>465</ele>
        <time>2025-03-19T14:26:03.000Z</time>
      </trkpt>
      <trkpt lat="43.55575" lon="6.47423">
        <ele>468</ele>
        <time>2025-03-19T14:26:21.000Z</time>
      </trkpt>
      <trkpt lat="43.55597" lon="6.47405">
        <ele>470</ele>
        <time>2025-03-19T14:26:42.000Z</time>
      </trkpt>
      <trkpt lat="43.55617" lon="6.47384">
        <ele>471</ele>
        <time>2025-03-19T14:27:03.000Z</time>
      </trkpt>
      <trkpt lat="43.55634" lon="6.47359">
        <ele>473</ele>
        <time>2025-03-19T14:27:24.000Z</time>
      </trkpt>
      <trkpt lat="43.55648" lon="6.47332">
        <ele>476</ele>
        <time>2025-03-19T14:27:42.000Z</time>
      </trkpt>
      <trkpt lat="43.55662" lon="6.47305">
        <ele>478</ele>
        <time>2025-03-19T14:28:00.000Z</time>
      </trkpt>
      <trkpt lat="43.55675" lon="6.47276">
        <ele>480</ele>
        <time>2025-03-19T14:28:21.000Z</time>
      </trkpt>
      <trkpt lat="43.55687" lon="6.47249">
        <ele>482</ele>
        <time>2025-03-19T14:28:39.000Z</time>
      </trkpt>
      <trkpt lat="43.55701" lon="6.47224">
        <ele>484</ele>
        <time>2025-03-19T14:28:57.000Z</time>
      </trkpt>
      <trkpt lat="43.55713" lon="6.47195">
        <ele>486</ele>
        <time>2025-03-19T14:29:18.000Z</time>
      </trkpt>
      <trkpt lat="43.55723" lon="6.47164">
        <ele>488</ele>
        <time>2025-03-19T14:29:36.000Z</time>
      </trkpt>
      <trkpt lat="43.5573" lon="6.47132">
        <ele>490</ele>
        <time>2025-03-19T14:29:57.000Z</time>
      </trkpt>
      <trkpt lat="43.55744" lon="6.47101">
        <ele>492</ele>
        <time>2025-03-19T14:30:18.000Z</time>
      </trkpt>
      <trkpt lat="43.55756" lon="6.47075">
        <ele>493</ele>
        <time>2025-03-19T14:30:36.000Z</time>
      </trkpt>
      <trkpt lat="43.55771" lon="6.47051">
        <ele>495</ele>
        <time>2025-03-19T14:30:54.000Z</time>
      </trkpt>
      <trkpt lat="43.55791" lon="6.47032">
        <ele>496</ele>
        <time>2025-03-19T14:31:15.000Z</time>
      </trkpt>
      <trkpt lat="43.55814" lon="6.47019">
        <ele>498</ele>
        <time>2025-03-19T14:31:36.000Z</time>
      </trkpt>
      <trkpt lat="43.55832" lon="6.46997">
        <ele>500</ele>
        <time>2025-03-19T14:31:54.000Z</time>
      </trkpt>
      <trkpt lat="43.55845" lon="6.46971">
        <ele>501</ele>
        <time>2025-03-19T14:32:12.000Z</time>
      </trkpt>
      <trkpt lat="43.55856" lon="6.46942">
        <ele>503</ele>
        <time>2025-03-19T14:32:30.000Z</time>
      </trkpt>
      <trkpt lat="43.55872" lon="6.46918">
        <ele>504</ele>
        <time>2025-03-19T14:32:51.000Z</time>
      </trkpt>
      <trkpt lat="43.55895" lon="6.4691">
        <ele>506</ele>
        <time>2025-03-19T14:34:12.000Z</time>
      </trkpt>
      <trkpt lat="43.55919" lon="6.46903">
        <ele>508</ele>
        <time>2025-03-19T14:34:33.000Z</time>
      </trkpt>
      <trkpt lat="43.55939" lon="6.46887">
        <ele>509</ele>
        <time>2025-03-19T14:34:51.000Z</time>
      </trkpt>
      <trkpt lat="43.55958" lon="6.46865">
        <ele>510</ele>
        <time>2025-03-19T14:35:12.000Z</time>
      </trkpt>
      <trkpt lat="43.55975" lon="6.46844">
        <ele>511</ele>
        <time>2025-03-19T14:35:30.000Z</time>
      </trkpt>
      <trkpt lat="43.55994" lon="6.46824">
        <ele>513</ele>
        <time>2025-03-19T14:35:51.000Z</time>
      </trkpt>
      <trkpt lat="43.56011" lon="6.46803">
        <ele>514</ele>
        <time>2025-03-19T14:36:09.000Z</time>
      </trkpt>
      <trkpt lat="43.56027" lon="6.46781">
        <ele>515</ele>
        <time>2025-03-19T14:36:27.000Z</time>
      </trkpt>
      <trkpt lat="43.56038" lon="6.46751">
        <ele>517</ele>
        <time>2025-03-19T14:36:48.000Z</time>
      </trkpt>
      <trkpt lat="43.56043" lon="6.46717">
        <ele>519</ele>
        <time>2025-03-19T14:37:09.000Z</time>
      </trkpt>
      <trkpt lat="43.56045" lon="6.46685">
        <ele>521</ele>
        <time>2025-03-19T14:37:39.000Z</time>
      </trkpt>
      <trkpt lat="43.56043" lon="6.46653">
        <ele>523</ele>
        <time>2025-03-19T14:38:00.000Z</time>
      </trkpt>
      <trkpt lat="43.5604" lon="6.4662">
        <ele>526</ele>
        <time>2025-03-19T14:38:21.000Z</time>
      </trkpt>
      <trkpt lat="43.5604" lon="6.46586">
        <ele>528</ele>
        <time>2025-03-19T14:38:45.000Z</time>
      </trkpt>
      <trkpt lat="43.56038" lon="6.46554">
        <ele>530</ele>
        <time>2025-03-19T14:39:09.000Z</time>
      </trkpt>
      <trkpt lat="43.56048" lon="6.46531">
        <ele>533</ele>
        <time>2025-03-19T14:44:45.000Z</time>
      </trkpt>
      <trkpt lat="43.56068" lon="6.46536">
        <ele>535</ele>
        <time>2025-03-19T14:47:54.000Z</time>
      </trkpt>
      <trkpt lat="43.56087" lon="6.46556">
        <ele>537</ele>
        <time>2025-03-19T14:48:15.000Z</time>
      </trkpt>
      <trkpt lat="43.56106" lon="6.46579">
        <ele>539</ele>
        <time>2025-03-19T14:48:36.000Z</time>
      </trkpt>
      <trkpt lat="43.56126" lon="6.46598">
        <ele>540</ele>
        <time>2025-03-19T14:48:57.000Z</time>
      </trkpt>
      <trkpt lat="43.56146" lon="6.4661">
        <ele>541</ele>
        <time>2025-03-19T14:49:15.000Z</time>
      </trkpt>
      <trkpt lat="43.56167" lon="6.46605">
        <ele>541</ele>
        <time>2025-03-19T14:49:33.000Z</time>
      </trkpt>
      <trkpt lat="43.56188" lon="6.46591">
        <ele>541</ele>
        <time>2025-03-19T14:49:54.000Z</time>
      </trkpt>
      <trkpt lat="43.56208" lon="6.46571">
        <ele>541</ele>
        <time>2025-03-19T14:50:12.000Z</time>
      </trkpt>
      <trkpt lat="43.56226" lon="6.46552">
        <ele>542</ele>
        <time>2025-03-19T14:50:30.000Z</time>
      </trkpt>
      <trkpt lat="43.56246" lon="6.46536">
        <ele>543</ele>
        <time>2025-03-19T14:50:48.000Z</time>
      </trkpt>
      <trkpt lat="43.56266" lon="6.46519">
        <ele>544</ele>
        <time>2025-03-19T14:51:18.000Z</time>
      </trkpt>
      <trkpt lat="43.56288" lon="6.46507">
        <ele>546</ele>
        <time>2025-03-19T14:51:39.000Z</time>
      </trkpt>
      <trkpt lat="43.5631" lon="6.46498">
        <ele>547</ele>
        <time>2025-03-19T14:52:00.000Z</time>
      </trkpt>
      <trkpt lat="43.56335" lon="6.46496">
        <ele>548</ele>
        <time>2025-03-19T14:52:21.000Z</time>
      </trkpt>
      <trkpt lat="43.56357" lon="6.46494">
        <ele>549</ele>
        <time>2025-03-19T14:52:42.000Z</time>
      </trkpt>
      <trkpt lat="43.56377" lon="6.4648">
        <ele>550</ele>
        <time>2025-03-19T14:53:03.000Z</time>
      </trkpt>
      <trkpt lat="43.5639" lon="6.46454">
        <ele>552</ele>
        <time>2025-03-19T14:53:24.000Z</time>
      </trkpt>
      <trkpt lat="43.56405" lon="6.46429">
        <ele>553</ele>
        <time>2025-03-19T14:53:45.000Z</time>
      </trkpt>
      <trkpt lat="43.56426" lon="6.46412">
        <ele>555</ele>
        <time>2025-03-19T14:54:03.000Z</time>
      </trkpt>
      <trkpt lat="43.56445" lon="6.46396">
        <ele>557</ele>
        <time>2025-03-19T14:54:21.000Z</time>
      </trkpt>
      <trkpt lat="43.56459" lon="6.46372">
        <ele>559</ele>
        <time>2025-03-19T14:54:42.000Z</time>
      </trkpt>
      <trkpt lat="43.56476" lon="6.4635">
        <ele>561</ele>
        <time>2025-03-19T14:54:57.000Z</time>
      </trkpt>
      <trkpt lat="43.56494" lon="6.46331">
        <ele>563</ele>
        <time>2025-03-19T14:55:18.000Z</time>
      </trkpt>
      <trkpt lat="43.56515" lon="6.46319">
        <ele>564</ele>
        <time>2025-03-19T14:55:39.000Z</time>
      </trkpt>
      <trkpt lat="43.56538" lon="6.46309">
        <ele>566</ele>
        <time>2025-03-19T14:56:00.000Z</time>
      </trkpt>
      <trkpt lat="43.56561" lon="6.46298">
        <ele>566</ele>
        <time>2025-03-19T14:56:24.000Z</time>
      </trkpt>
      <trkpt lat="43.56584" lon="6.46293">
        <ele>565</ele>
        <time>2025-03-19T14:56:42.000Z</time>
      </trkpt>
      <trkpt lat="43.56608" lon="6.46295">
        <ele>563</ele>
        <time>2025-03-19T14:59:39.000Z</time>
      </trkpt>
      <trkpt lat="43.56632" lon="6.46306">
        <ele>561</ele>
        <time>2025-03-19T15:00:00.000Z</time>
      </trkpt>
      <trkpt lat="43.56652" lon="6.46326">
        <ele>558</ele>
        <time>2025-03-19T15:00:21.000Z</time>
      </trkpt>
      <trkpt lat="43.5667" lon="6.46349">
        <ele>556</ele>
        <time>2025-03-19T15:01:15.000Z</time>
      </trkpt>
      <trkpt lat="43.56688" lon="6.46372">
        <ele>553</ele>
        <time>2025-03-19T15:01:36.000Z</time>
      </trkpt>
      <trkpt lat="43.56705" lon="6.46395">
        <ele>550</ele>
        <time>2025-03-19T15:02:33.000Z</time>
      </trkpt>
      <trkpt lat="43.56724" lon="6.46413">
        <ele>547</ele>
        <time>2025-03-19T15:02:51.000Z</time>
      </trkpt>
      <trkpt lat="43.56742" lon="6.46432">
        <ele>544</ele>
        <time>2025-03-19T15:03:12.000Z</time>
      </trkpt>
      <trkpt lat="43.56763" lon="6.46449">
        <ele>542</ele>
        <time>2025-03-19T15:03:33.000Z</time>
      </trkpt>
      <trkpt lat="43.56783" lon="6.46467">
        <ele>540</ele>
        <time>2025-03-19T15:03:54.000Z</time>
      </trkpt>
      <trkpt lat="43.56803" lon="6.46484">
        <ele>538</ele>
        <time>2025-03-19T15:04:15.000Z</time>
      </trkpt>
      <trkpt lat="43.56824" lon="6.465">
        <ele>537</ele>
        <time>2025-03-19T15:04:36.000Z</time>
      </trkpt>
      <trkpt lat="43.56846" lon="6.46511">
        <ele>536</ele>
        <time>2025-03-19T15:05:00.000Z</time>
      </trkpt>
      <trkpt lat="43.56867" lon="6.46523">
        <ele>536</ele>
        <time>2025-03-19T15:05:21.000Z</time>
      </trkpt>
      <trkpt lat="43.56888" lon="6.46533">
        <ele>536</ele>
        <time>2025-03-19T15:05:39.000Z</time>
      </trkpt>
      <trkpt lat="43.56912" lon="6.46526">
        <ele>536</ele>
        <time>2025-03-19T15:06:00.000Z</time>
      </trkpt>
      <trkpt lat="43.56934" lon="6.46512">
        <ele>537</ele>
        <time>2025-03-19T15:06:24.000Z</time>
      </trkpt>
      <trkpt lat="43.56957" lon="6.46503">
        <ele>537</ele>
        <time>2025-03-19T15:06:51.000Z</time>
      </trkpt>
      <trkpt lat="43.56979" lon="6.46498">
        <ele>537</ele>
        <time>2025-03-19T15:07:12.000Z</time>
      </trkpt>
      <trkpt lat="43.57002" lon="6.46506">
        <ele>536</ele>
        <time>2025-03-19T15:08:12.000Z</time>
      </trkpt>
      <trkpt lat="43.57023" lon="6.46517">
        <ele>535</ele>
        <time>2025-03-19T15:08:33.000Z</time>
      </trkpt>
      <trkpt lat="43.57045" lon="6.46526">
        <ele>534</ele>
        <time>2025-03-19T15:08:57.000Z</time>
      </trkpt>
      <trkpt lat="43.57068" lon="6.46533">
        <ele>532</ele>
        <time>2025-03-19T15:09:18.000Z</time>
      </trkpt>
      <trkpt lat="43.57091" lon="6.46534">
        <ele>530</ele>
        <time>2025-03-19T15:09:39.000Z</time>
      </trkpt>
      <trkpt lat="43.57113" lon="6.4654">
        <ele>528</ele>
        <time>2025-03-19T15:10:00.000Z</time>
      </trkpt>
      <trkpt lat="43.57135" lon="6.46554">
        <ele>527</ele>
        <time>2025-03-19T15:10:21.000Z</time>
      </trkpt>
      <trkpt lat="43.57156" lon="6.46575">
        <ele>525</ele>
        <time>2025-03-19T15:10:45.000Z</time>
      </trkpt>
      <trkpt lat="43.5717" lon="6.46605">
        <ele>524</ele>
        <time>2025-03-19T15:11:09.000Z</time>
      </trkpt>
      <trkpt lat="43.5718" lon="6.46632">
        <ele>523</ele>
        <time>2025-03-19T15:11:30.000Z</time>
      </trkpt>
      <trkpt lat="43.57185" lon="6.46664">
        <ele>522</ele>
        <time>2025-03-19T15:11:48.000Z</time>
      </trkpt>
      <trkpt lat="43.57191" lon="6.46698">
        <ele>521</ele>
        <time>2025-03-19T15:12:12.000Z</time>
      </trkpt>
      <trkpt lat="43.57205" lon="6.46726">
        <ele>520</ele>
        <time>2025-03-19T15:12:33.000Z</time>
      </trkpt>
      <trkpt lat="43.57224" lon="6.46749">
        <ele>519</ele>
        <time>2025-03-19T15:12:54.000Z</time>
      </trkpt>
      <trkpt lat="43.57238" lon="6.46775">
        <ele>518</ele>
        <time>2025-03-19T15:13:15.000Z</time>
      </trkpt>
      <trkpt lat="43.57243" lon="6.46806">
        <ele>517</ele>
        <time>2025-03-19T15:13:33.000Z</time>
      </trkpt>
      <trkpt lat="43.57244" lon="6.46841">
        <ele>517</ele>
        <time>2025-03-19T15:13:57.000Z</time>
      </trkpt>
      <trkpt lat="43.57245" lon="6.46873">
        <ele>516</ele>
        <time>2025-03-19T15:14:12.000Z</time>
      </trkpt>
      <trkpt lat="43.57246" lon="6.46908">
        <ele>516</ele>
        <time>2025-03-19T15:14:45.000Z</time>
      </trkpt>
      <trkpt lat="43.57247" lon="6.46942">
        <ele>515</ele>
        <time>2025-03-19T15:15:06.000Z</time>
      </trkpt>
      <trkpt lat="43.57248" lon="6.46973">
        <ele>514</ele>
        <time>2025-03-19T15:15:24.000Z</time>
      </trkpt>
      <trkpt lat="43.57247" lon="6.47006">
        <ele>513</ele>
        <time>2025-03-19T15:15:45.000Z</time>
      </trkpt>
      <trkpt lat="43.57252" lon="6.4704">
        <ele>512</ele>
        <time>2025-03-19T15:16:06.000Z</time>
      </trkpt>
      <trkpt lat="43.57259" lon="6.47071">
        <ele>511</ele>
        <time>2025-03-19T15:16:27.000Z</time>
      </trkpt>
      <trkpt lat="43.5727" lon="6.47099">
        <ele>510</ele>
        <time>2025-03-19T15:16:45.000Z</time>
      </trkpt>
      <trkpt lat="43.5728" lon="6.47127">
        <ele>509</ele>
        <time>2025-03-19T15:17:03.000Z</time>
      </trkpt>
      <trkpt lat="43.57289" lon="6.47158">
        <ele>508</ele>
        <time>2025-03-19T15:17:24.000Z</time>
      </trkpt>
      <trkpt lat="43.57295" lon="6.4719">
        <ele>507</ele>
        <time>2025-03-19T15:17:44.000Z</time>
      </trkpt>
      <trkpt lat="43.57299" lon="6.47224">
        <ele>506</ele>
        <time>2025-03-19T15:18:05.000Z</time>
      </trkpt>
      <trkpt lat="43.57295" lon="6.47258">
        <ele>505</ele>
        <time>2025-03-19T15:18:26.000Z</time>
      </trkpt>
      <trkpt lat="43.5729" lon="6.47289">
        <ele>503</ele>
        <time>2025-03-19T15:18:44.000Z</time>
      </trkpt>
      <trkpt lat="43.57286" lon="6.47321">
        <ele>501</ele>
        <time>2025-03-19T15:19:02.000Z</time>
      </trkpt>
      <trkpt lat="43.57283" lon="6.47356">
        <ele>500</ele>
        <time>2025-03-19T15:19:20.000Z</time>
      </trkpt>
      <trkpt lat="43.57284" lon="6.47389">
        <ele>499</ele>
        <time>2025-03-19T15:19:38.000Z</time>
      </trkpt>
      <trkpt lat="43.57287" lon="6.47421">
        <ele>498</ele>
        <time>2025-03-19T15:19:59.000Z</time>
      </trkpt>
      <trkpt lat="43.573" lon="6.47439">
        <ele>498</ele>
        <time>2025-03-19T15:20:29.000Z</time>
      </trkpt>
      <trkpt lat="43.57282" lon="6.47453">
        <ele>497</ele>
        <time>2025-03-19T15:22:41.000Z</time>
      </trkpt>
      <trkpt lat="43.57262" lon="6.4747">
        <ele>497</ele>
        <time>2025-03-19T15:23:02.000Z</time>
      </trkpt>
      <trkpt lat="43.57248" lon="6.47496">
        <ele>497</ele>
        <time>2025-03-19T15:23:23.000Z</time>
      </trkpt>
      <trkpt lat="43.57238" lon="6.47526">
        <ele>497</ele>
        <time>2025-03-19T15:23:41.000Z</time>
      </trkpt>
      <trkpt lat="43.57232" lon="6.47557">
        <ele>496</ele>
        <time>2025-03-19T15:23:59.000Z</time>
      </trkpt>
      <trkpt lat="43.57225" lon="6.47589">
        <ele>495</ele>
        <time>2025-03-19T15:24:17.000Z</time>
      </trkpt>
      <trkpt lat="43.57221" lon="6.47621">
        <ele>494</ele>
        <time>2025-03-19T15:24:35.000Z</time>
      </trkpt>
      <trkpt lat="43.57218" lon="6.47653">
        <ele>494</ele>
        <time>2025-03-19T15:24:53.000Z</time>
      </trkpt>
      <trkpt lat="43.57215" lon="6.47685">
        <ele>494</ele>
        <time>2025-03-19T15:25:11.000Z</time>
      </trkpt>
      <trkpt lat="43.57214" lon="6.47718">
        <ele>494</ele>
        <time>2025-03-19T15:25:29.000Z</time>
      </trkpt>
      <trkpt lat="43.57211" lon="6.4775">
        <ele>495</ele>
        <time>2025-03-19T15:25:47.000Z</time>
      </trkpt>
      <trkpt lat="43.57209" lon="6.47783">
        <ele>494</ele>
        <time>2025-03-19T15:26:08.000Z</time>
      </trkpt>
      <trkpt lat="43.57204" lon="6.47813">
        <ele>493</ele>
        <time>2025-03-19T15:26:26.000Z</time>
      </trkpt>
      <trkpt lat="43.57198" lon="6.47845">
        <ele>492</ele>
        <time>2025-03-19T15:26:44.000Z</time>
      </trkpt>
      <trkpt lat="43.57192" lon="6.47876">
        <ele>490</ele>
        <time>2025-03-19T15:27:05.000Z</time>
      </trkpt>
      <trkpt lat="43.5718" lon="6.47906">
        <ele>489</ele>
        <time>2025-03-19T15:27:29.000Z</time>
      </trkpt>
      <trkpt lat="43.57164" lon="6.47931">
        <ele>487</ele>
        <time>2025-03-19T15:27:50.000Z</time>
      </trkpt>
      <trkpt lat="43.5715" lon="6.47957">
        <ele>484</ele>
        <time>2025-03-19T15:28:11.000Z</time>
      </trkpt>
      <trkpt lat="43.57133" lon="6.47979">
        <ele>482</ele>
        <time>2025-03-19T15:28:28.000Z</time>
      </trkpt>
      <trkpt lat="43.57121" lon="6.48005">
        <ele>480</ele>
        <time>2025-03-19T15:28:49.000Z</time>
      </trkpt>
      <trkpt lat="43.57109" lon="6.48033">
        <ele>478</ele>
        <time>2025-03-19T15:29:10.000Z</time>
      </trkpt>
      <trkpt lat="43.57097" lon="6.48061">
        <ele>475</ele>
        <time>2025-03-19T15:29:28.000Z</time>
      </trkpt>
      <trkpt lat="43.57086" lon="6.48091">
        <ele>472</ele>
        <time>2025-03-19T15:29:46.000Z</time>
      </trkpt>
      <trkpt lat="43.57079" lon="6.48122">
        <ele>469</ele>
        <time>2025-03-19T15:30:04.000Z</time>
      </trkpt>
      <trkpt lat="43.57069" lon="6.4815">
        <ele>467</ele>
        <time>2025-03-19T15:30:22.000Z</time>
      </trkpt>
      <trkpt lat="43.57058" lon="6.48176">
        <ele>465</ele>
        <time>2025-03-19T15:30:40.000Z</time>
      </trkpt>
      <trkpt lat="43.57051" lon="6.48206">
        <ele>462</ele>
        <time>2025-03-19T15:30:58.000Z</time>
      </trkpt>
      <trkpt lat="43.57045" lon="6.48237">
        <ele>461</ele>
        <time>2025-03-19T15:31:16.000Z</time>
      </trkpt>
      <trkpt lat="43.57043" lon="6.48268">
        <ele>458</ele>
        <time>2025-03-19T15:33:07.000Z</time>
      </trkpt>
      <trkpt lat="43.57052" lon="6.48297">
        <ele>455</ele>
        <time>2025-03-19T15:35:28.000Z</time>
      </trkpt>
      <trkpt lat="43.57068" lon="6.48322">
        <ele>453</ele>
        <time>2025-03-19T15:35:49.000Z</time>
      </trkpt>
      <trkpt lat="43.57081" lon="6.48343">
        <ele>451</ele>
        <time>2025-03-19T15:36:07.000Z</time>
      </trkpt>
      <trkpt lat="43.57063" lon="6.48344">
        <ele>449</ele>
        <time>2025-03-19T15:36:43.000Z</time>
      </trkpt>
      <trkpt lat="43.57041" lon="6.48332">
        <ele>448</ele>
        <time>2025-03-19T15:37:01.000Z</time>
      </trkpt>
      <trkpt lat="43.57025" lon="6.4831">
        <ele>447</ele>
        <time>2025-03-19T15:37:28.000Z</time>
      </trkpt>
      <trkpt lat="43.57011" lon="6.48285">
        <ele>447</ele>
        <time>2025-03-19T15:37:46.000Z</time>
      </trkpt>
      <trkpt lat="43.57001" lon="6.48266">
        <ele>447</ele>
        <time>2025-03-19T15:41:16.000Z</time>
      </trkpt>
      <trkpt lat="43.57015" lon="6.4828">
        <ele>447</ele>
        <time>2025-03-19T15:43:22.000Z</time>
      </trkpt>
      <trkpt lat="43.57028" lon="6.48306">
        <ele>447</ele>
        <time>2025-03-19T15:43:46.000Z</time>
      </trkpt>
      <trkpt lat="43.57046" lon="6.48328">
        <ele>447</ele>
        <time>2025-03-19T15:44:07.000Z</time>
      </trkpt>
      <trkpt lat="43.57068" lon="6.4834">
        <ele>447</ele>
        <time>2025-03-19T15:44:28.000Z</time>
      </trkpt>
      <trkpt lat="43.57087" lon="6.48353">
        <ele>447</ele>
        <time>2025-03-19T15:44:55.000Z</time>
      </trkpt>
      <trkpt lat="43.57092" lon="6.48381">
        <ele>446</ele>
        <time>2025-03-19T15:45:22.000Z</time>
      </trkpt>
      <trkpt lat="43.57089" lon="6.48414">
        <ele>444</ele>
        <time>2025-03-19T15:45:43.000Z</time>
      </trkpt>
      <trkpt lat="43.57085" lon="6.48448">
        <ele>443</ele>
        <time>2025-03-19T15:46:04.000Z</time>
      </trkpt>
      <trkpt lat="43.57073" lon="6.4848">
        <ele>442</ele>
        <time>2025-03-19T15:46:22.000Z</time>
      </trkpt>
      <trkpt lat="43.57055" lon="6.48505">
        <ele>440</ele>
        <time>2025-03-19T15:46:40.000Z</time>
      </trkpt>
      <trkpt lat="43.5704" lon="6.48528">
        <ele>439</ele>
        <time>2025-03-19T15:46:58.000Z</time>
      </trkpt>
      <trkpt lat="43.57035" lon="6.48561">
        <ele>438</ele>
        <time>2025-03-19T15:47:16.000Z</time>
      </trkpt>
      <trkpt lat="43.57037" lon="6.48596">
        <ele>437</ele>
        <time>2025-03-19T15:47:37.000Z</time>
      </trkpt>
      <trkpt lat="43.57034" lon="6.48629">
        <ele>436</ele>
        <time>2025-03-19T15:47:55.000Z</time>
      </trkpt>
      <trkpt lat="43.57028" lon="6.48659">
        <ele>435</ele>
        <time>2025-03-19T15:48:10.000Z</time>
      </trkpt>
      <trkpt lat="43.57025" lon="6.48689">
        <ele>434</ele>
        <time>2025-03-19T15:48:28.000Z</time>
      </trkpt>
      <trkpt lat="43.57033" lon="6.48719">
        <ele>433</ele>
        <time>2025-03-19T15:48:46.000Z</time>
      </trkpt>
      <trkpt lat="43.57042" lon="6.48748">
        <ele>432</ele>
        <time>2025-03-19T15:49:04.000Z</time>
      </trkpt>
      <trkpt lat="43.57049" lon="6.48778">
        <ele>432</ele>
        <time>2025-03-19T15:49:22.000Z</time>
      </trkpt>
      <trkpt lat="43.57052" lon="6.48809">
        <ele>431</ele>
        <time>2025-03-19T15:49:37.000Z</time>
      </trkpt>
      <trkpt lat="43.57058" lon="6.48841">
        <ele>430</ele>
        <time>2025-03-19T15:49:55.000Z</time>
      </trkpt>
      <trkpt lat="43.57069" lon="6.4887">
        <ele>429</ele>
        <time>2025-03-19T15:50:13.000Z</time>
      </trkpt>
      <trkpt lat="43.57081" lon="6.48896">
        <ele>427</ele>
        <time>2025-03-19T15:50:31.000Z</time>
      </trkpt>
      <trkpt lat="43.57094" lon="6.48923">
        <ele>426</ele>
        <time>2025-03-19T15:50:49.000Z</time>
      </trkpt>
      <trkpt lat="43.57105" lon="6.48951">
        <ele>425</ele>
        <time>2025-03-19T15:51:07.000Z</time>
      </trkpt>
      <trkpt lat="43.57109" lon="6.48982">
        <ele>425</ele>
        <time>2025-03-19T15:51:22.000Z</time>
      </trkpt>
      <trkpt lat="43.57111" lon="6.49016">
        <ele>424</ele>
        <time>2025-03-19T15:51:43.000Z</time>
      </trkpt>
      <trkpt lat="43.57122" lon="6.49042">
        <ele>423</ele>
        <time>2025-03-19T15:52:07.000Z</time>
      </trkpt>
      <trkpt lat="43.57142" lon="6.49059">
        <ele>421</ele>
        <time>2025-03-19T15:52:28.000Z</time>
      </trkpt>
      <trkpt lat="43.57163" lon="6.49075">
        <ele>419</ele>
        <time>2025-03-19T15:52:46.000Z</time>
      </trkpt>
      <trkpt lat="43.57183" lon="6.49095">
        <ele>417</ele>
        <time>2025-03-19T15:53:04.000Z</time>
      </trkpt>
      <trkpt lat="43.572" lon="6.49118">
        <ele>414</ele>
        <time>2025-03-19T15:53:22.000Z</time>
      </trkpt>
      <trkpt lat="43.57216" lon="6.49139">
        <ele>411</ele>
        <time>2025-03-19T15:53:40.000Z</time>
      </trkpt>
      <trkpt lat="43.57236" lon="6.49159">
        <ele>408</ele>
        <time>2025-03-19T15:54:01.000Z</time>
      </trkpt>
      <trkpt lat="43.57245" lon="6.49187">
        <ele>405</ele>
        <time>2025-03-19T15:54:19.000Z</time>
      </trkpt>
      <trkpt lat="43.5724" lon="6.49217">
        <ele>402</ele>
        <time>2025-03-19T15:54:37.000Z</time>
      </trkpt>
      <trkpt lat="43.57228" lon="6.49241">
        <ele>399</ele>
        <time>2025-03-19T15:56:52.000Z</time>
      </trkpt>
      <trkpt lat="43.57207" lon="6.49248">
        <ele>397</ele>
        <time>2025-03-19T15:57:10.000Z</time>
      </trkpt>
      <trkpt lat="43.57188" lon="6.49266">
        <ele>395</ele>
        <time>2025-03-19T15:57:34.000Z</time>
      </trkpt>
      <trkpt lat="43.57166" lon="6.49276">
        <ele>393</ele>
        <time>2025-03-19T15:57:54.000Z</time>
      </trkpt>
      <trkpt lat="43.57145" lon="6.49271">
        <ele>391</ele>
        <time>2025-03-19T15:58:12.000Z</time>
      </trkpt>
      <trkpt lat="43.57125" lon="6.49284">
        <ele>388</ele>
        <time>2025-03-19T15:58:39.000Z</time>
      </trkpt>
      <trkpt lat="43.57114" lon="6.49313">
        <ele>385</ele>
        <time>2025-03-19T15:59:03.000Z</time>
      </trkpt>
      <trkpt lat="43.57099" lon="6.49336">
        <ele>381</ele>
        <time>2025-03-19T15:59:24.000Z</time>
      </trkpt>
      <trkpt lat="43.57078" lon="6.49354">
        <ele>377</ele>
        <time>2025-03-19T15:59:45.000Z</time>
      </trkpt>
      <trkpt lat="43.57062" lon="6.49379">
        <ele>374</ele>
        <time>2025-03-19T16:00:06.000Z</time>
      </trkpt>
      <trkpt lat="43.57051" lon="6.49408">
        <ele>370</ele>
        <time>2025-03-19T16:00:30.000Z</time>
      </trkpt>
      <trkpt lat="43.57038" lon="6.49435">
        <ele>367</ele>
        <time>2025-03-19T16:00:51.000Z</time>
      </trkpt>
      <trkpt lat="43.57028" lon="6.49462">
        <ele>365</ele>
        <time>2025-03-19T16:01:06.000Z</time>
      </trkpt>
      <trkpt lat="43.57015" lon="6.49491">
        <ele>362</ele>
        <time>2025-03-19T16:01:27.000Z</time>
      </trkpt>
      <trkpt lat="43.57002" lon="6.49521">
        <ele>360</ele>
        <time>2025-03-19T16:01:51.000Z</time>
      </trkpt>
      <trkpt lat="43.56992" lon="6.4955">
        <ele>359</ele>
        <time>2025-03-19T16:02:09.000Z</time>
      </trkpt>
      <trkpt lat="43.56981" lon="6.49577">
        <ele>359</ele>
        <time>2025-03-19T16:02:27.000Z</time>
      </trkpt>
      <trkpt lat="43.56966" lon="6.49601">
        <ele>359</ele>
        <time>2025-03-19T16:03:03.000Z</time>
      </trkpt>
      <trkpt lat="43.56955" lon="6.49625">
        <ele>361</ele>
        <time>2025-03-19T16:03:24.000Z</time>
      </trkpt>
      <trkpt lat="43.56967" lon="6.49647">
        <ele>363</ele>
        <time>2025-03-19T16:03:54.000Z</time>
      </trkpt>
      <trkpt lat="43.56972" lon="6.49677">
        <ele>365</ele>
        <time>2025-03-19T16:06:57.000Z</time>
      </trkpt>
      <trkpt lat="43.56966" lon="6.49703">
        <ele>366</ele>
        <time>2025-03-19T16:07:42.000Z</time>
      </trkpt>
      <trkpt lat="43.56946" lon="6.49705">
        <ele>366</ele>
        <time>2025-03-19T16:11:35.000Z</time>
      </trkpt>
      <trkpt lat="43.5693" lon="6.49722">
        <ele>364</ele>
        <time>2025-03-19T16:12:47.000Z</time>
      </trkpt>
      <trkpt lat="43.56909" lon="6.49722">
        <ele>362</ele>
        <time>2025-03-19T16:18:51.000Z</time>
      </trkpt>
      <trkpt lat="43.56886" lon="6.49722">
        <ele>360</ele>
        <time>2025-03-19T16:20:03.000Z</time>
      </trkpt>
      <trkpt lat="43.56871" lon="6.49744">
        <ele>357</ele>
        <time>2025-03-19T16:20:27.000Z</time>
      </trkpt>
      <trkpt lat="43.56841" lon="6.49744">
        <ele>357</ele>
        <time>2025-03-19T16:22:08.000Z</time>
      </trkpt>
      <trkpt lat="43.56843" lon="6.49775">
        <ele>358</ele>
        <time>2025-03-19T16:22:36.000Z</time>
      </trkpt>
      <trkpt lat="43.56823" lon="6.49792">
        <ele>357</ele>
        <time>2025-03-19T16:23:03.000Z</time>
      </trkpt>
      <trkpt lat="43.56807" lon="6.49819">
        <ele>354</ele>
        <time>2025-03-19T16:23:24.000Z</time>
      </trkpt>
      <trkpt lat="43.56784" lon="6.49821">
        <ele>357</ele>
        <time>2025-03-19T16:24:03.000Z</time>
      </trkpt>
      <trkpt lat="43.56763" lon="6.49811">
        <ele>357</ele>
        <time>2025-03-19T16:24:54.000Z</time>
      </trkpt>
    </trkseg>
  </trk>
</gpx>